createdAt,value
2018-06-20T18:30:04.164Z,5.73
2018-06-20T18:32:33.340Z,5.70
2018-06-20T18:35:02.461Z,5.50
2018-06-20T18:37:31.579Z,5.70
2018-06-20T18:40:03.341Z,5.47
2018-06-20T18:42:33.060Z,5.63
2018-06-20T18:45:02.152Z,5.97
2018-06-20T18:47:36.521Z,4.93
2018-06-20T18:50:05.728Z,5.13
2018-06-20T18:52:34.893Z,5.43
2018-06-20T18:55:04.913Z,5.67
2018-06-20T18:57:39.522Z,5.53
2018-06-20T19:44:02.042Z,6.70
2018-06-20T19:46:31.151Z,7.17
2018-06-20T19:49:00.349Z,6.87
2018-06-20T19:51:29.468Z,7.80
2018-06-20T19:53:58.625Z,7.23
2018-06-20T19:56:27.735Z,7.80
2018-06-20T19:58:56.844Z,6.70
2018-06-20T20:01:26.012Z,7.17
2018-06-20T20:04:05.628Z,6.97
2018-06-20T20:06:34.768Z,6.53
2018-06-20T20:09:04.503Z,6.97
2018-06-20T20:11:33.623Z,7.03
2018-06-20T20:14:02.728Z,7.23
2018-06-20T20:16:31.880Z,6.73
2018-06-20T20:19:00.969Z,6.60
2018-06-20T20:21:30.348Z,7.27
2018-06-20T20:23:59.461Z,7.17
2018-06-20T20:26:28.595Z,7.50
2018-06-20T20:28:57.787Z,7.57
2018-06-20T20:31:26.901Z,7.40
2018-06-20T20:33:56.133Z,7.23
2018-06-20T20:36:25.240Z,6.87
2018-06-20T20:38:54.413Z,7.20
2018-06-20T20:41:23.565Z,7.40
2018-06-20T20:43:52.671Z,7.33
2018-06-20T20:46:21.804Z,7.63
2018-06-20T20:48:51.535Z,7.27
2018-06-20T20:51:20.737Z,7.27
2018-06-20T20:53:49.827Z,7.80
2018-06-20T20:56:19.077Z,7.57
2018-06-20T20:58:48.189Z,7.67
2018-06-20T21:01:17.294Z,7.23
2018-06-20T21:03:46.449Z,7.77
2018-06-20T21:06:15.575Z,7.63
2018-06-20T21:08:44.766Z,7.43
2018-06-20T21:11:13.953Z,7.60
2018-06-20T21:13:43.038Z,6.90
2018-06-20T21:16:12.243Z,6.67
2018-06-20T21:18:41.345Z,7.27
2018-06-20T21:21:10.521Z,6.80
2018-06-20T21:23:39.631Z,7.50
2018-06-20T21:26:08.715Z,7.47
2018-06-20T21:28:38.645Z,6.77
2018-06-20T21:31:07.755Z,7.60
2018-06-20T21:33:36.946Z,7.87
2018-06-20T21:36:06.082Z,7.43
2018-06-20T21:38:35.289Z,7.47
2018-06-20T21:41:04.403Z,7.43
2018-06-20T21:43:33.503Z,7.63
2018-06-20T21:46:02.311Z,6.53
2018-06-20T21:48:32.409Z,7.73
2018-06-20T21:51:01.553Z,7.60
2018-06-20T21:53:30.667Z,7.50
2018-06-20T21:55:59.770Z,6.77
2018-06-20T21:58:28.899Z,5.90
2018-06-20T22:00:58.240Z,5.77
2018-06-20T22:03:27.338Z,4.77
2018-06-20T22:05:56.674Z,5.33
2018-06-20T22:08:25.860Z,5.90
2018-06-20T22:10:54.987Z,5.20
2018-06-20T22:13:24.840Z,5.70
2018-06-20T22:15:53.917Z,5.97
2018-06-20T22:18:23.060Z,5.90
2018-06-20T22:20:52.217Z,6.63
2018-06-20T22:23:21.311Z,6.40
2018-06-20T22:25:50.469Z,6.67
2018-06-20T22:28:19.584Z,6.43
2018-06-20T22:30:48.352Z,7.50
2018-06-20T22:33:17.404Z,8.43
2018-06-20T22:35:46.590Z,8.67
2018-06-20T22:38:15.786Z,9.13
2018-06-20T22:40:45.162Z,8.70
2018-06-20T22:43:14.321Z,9.53
2018-06-20T22:45:43.523Z,9.10
2018-06-20T22:48:12.687Z,9.13
2018-06-20T22:50:41.828Z,9.63
2018-06-20T22:53:10.986Z,9.83
2018-06-20T22:55:40.140Z,9.40
2018-06-20T22:58:09.295Z,9.67
2018-06-20T23:00:38.447Z,10.00
2018-06-20T23:03:07.597Z,9.30
2018-06-20T23:05:36.755Z,9.20
2018-06-20T23:08:05.921Z,9.67
2018-06-20T23:10:35.137Z,9.47
2018-06-20T23:13:04.356Z,9.43
2018-06-20T23:15:33.189Z,9.50
2018-06-20T23:18:02.208Z,9.13
2018-06-20T23:20:31.325Z,8.63
2018-06-20T23:23:00.498Z,9.07
2018-06-20T23:25:29.599Z,8.60
2018-06-20T23:27:58.722Z,7.60
2018-06-20T23:30:27.857Z,7.13
2018-06-20T23:32:56.989Z,6.33
2018-06-20T23:35:26.120Z,7.40
2018-06-20T23:37:55.263Z,6.90
2018-06-20T23:40:24.439Z,7.10
2018-06-20T23:42:53.664Z,7.17
2018-06-20T23:45:23.373Z,7.30
2018-06-20T23:47:52.507Z,8.07
2018-06-20T23:50:21.897Z,7.87
2018-06-20T23:52:51.043Z,8.80
2018-06-20T23:55:20.236Z,9.30
2018-06-20T23:57:49.368Z,8.30
